createdAt,value
2018-10-02T00:00:29.284Z,6.62
2018-10-02T00:01:29.282Z,6.58
2018-10-02T00:02:29.269Z,6.53
2018-10-02T00:03:29.262Z,6.50
2018-10-02T00:04:29.258Z,6.41
2018-10-02T00:05:29.255Z,6.38
2018-10-02T00:06:29.243Z,6.32
2018-10-02T00:07:29.242Z,6.32
2018-10-02T00:08:29.234Z,6.25
2018-10-02T00:09:29.229Z,6.21
2018-10-02T00:10:29.215Z,6.03
2018-10-02T00:11:29.210Z,6.06
2018-10-02T00:12:29.205Z,5.93
2018-10-02T00:13:29.195Z,5.92
2018-10-02T00:14:29.187Z,5.89
2018-10-02T00:15:29.189Z,5.82
2018-10-02T00:16:29.173Z,5.70
2018-10-02T00:17:29.194Z,5.68
2018-10-02T00:18:29.172Z,5.67
2018-10-02T00:19:29.150Z,5.59
2018-10-02T00:20:29.149Z,5.55
2018-10-02T00:21:29.138Z,5.48
2018-10-02T00:22:29.129Z,5.38
2018-10-02T00:23:29.122Z,5.27
2018-10-02T00:24:29.117Z,5.27
2018-10-02T00:25:29.132Z,5.30
2018-10-02T00:26:29.103Z,5.30
2018-10-02T00:27:29.097Z,5.35
2018-10-02T00:28:29.088Z,5.17
2018-10-02T00:29:29.082Z,5.22
2018-10-02T00:30:29.075Z,5.27
2018-10-02T00:31:29.080Z,5.16
2018-10-02T00:32:29.158Z,5.23
2018-10-02T00:33:29.054Z,5.22
2018-10-02T00:34:29.045Z,5.20
2018-10-02T00:35:29.041Z,5.14
2018-10-02T00:36:29.028Z,5.05
2018-10-02T00:37:29.021Z,4.99
2018-10-02T00:38:29.015Z,4.95
2018-10-02T00:39:29.006Z,4.98
2018-10-02T00:40:28.997Z,4.86
2018-10-02T00:41:28.991Z,4.80
2018-10-02T00:42:28.979Z,4.75
2018-10-02T00:43:28.974Z,4.72
2018-10-02T00:44:28.972Z,4.77
2018-10-02T00:45:28.959Z,4.57
2018-10-02T00:46:28.954Z,4.58
2018-10-02T00:47:28.944Z,4.62
2018-10-02T00:48:28.945Z,4.54
2018-10-02T00:49:28.936Z,4.57
2018-10-02T00:50:28.920Z,4.58
2018-10-02T00:51:28.916Z,4.62
2018-10-02T00:52:28.905Z,4.62
2018-10-02T00:53:28.895Z,4.67
2018-10-02T00:54:28.889Z,4.59
2018-10-02T00:55:28.884Z,4.55
2018-10-02T00:56:28.876Z,4.58
2018-10-02T00:57:28.886Z,4.58
2018-10-02T00:58:28.867Z,4.57
2018-10-02T00:59:28.849Z,4.62
2018-10-02T01:00:28.842Z,4.54
2018-10-02T01:01:28.833Z,4.47
2018-10-02T01:02:28.853Z,4.40
2018-10-02T01:03:28.818Z,4.40
2018-10-02T01:04:28.808Z,4.44
2018-10-02T01:05:28.804Z,4.39
2018-10-02T01:06:28.800Z,4.37
2018-10-02T01:07:28.784Z,4.36
2018-10-02T01:08:28.778Z,4.42
2018-10-02T01:09:28.773Z,4.34
2018-10-02T01:10:28.765Z,4.39
2018-10-02T01:11:28.807Z,4.36
2018-10-02T01:12:28.745Z,4.26
2018-10-02T01:13:28.740Z,4.18
2018-10-02T01:14:28.729Z,4.33
2018-10-02T01:15:28.722Z,4.22
2018-10-02T01:16:28.804Z,4.29
2018-10-02T01:17:28.707Z,4.16
2018-10-02T01:18:28.698Z,4.21
2018-10-02T01:19:28.691Z,4.25
2018-10-02T01:20:28.691Z,4.21
2018-10-02T01:21:28.703Z,4.28
2018-10-02T01:22:28.664Z,4.33
2018-10-02T01:23:28.657Z,4.28
2018-10-02T01:24:28.651Z,4.44
2018-10-02T01:25:28.636Z,4.40
2018-10-02T01:26:28.680Z,4.44
2018-10-02T01:27:28.623Z,4.47
2018-10-02T01:28:28.618Z,4.50
2018-10-02T01:29:28.610Z,4.47
2018-10-02T02:06:51.032Z,4.03
2018-10-02T02:07:50.998Z,3.97
2018-10-02T02:09:43.907Z,3.92
2018-10-02T02:10:43.884Z,3.96
2018-10-02T02:12:36.798Z,3.83
2018-10-02T02:13:36.781Z,3.85
2018-10-02T02:15:29.890Z,3.62
2018-10-02T02:16:29.860Z,3.68
2018-10-02T02:18:22.775Z,3.64
2018-10-02T02:19:22.746Z,3.72
2018-10-02T02:21:15.805Z,3.65
2018-10-02T02:22:15.778Z,3.67
2018-10-02T02:24:08.623Z,3.54
2018-10-02T02:25:08.586Z,3.44
2018-10-02T02:26:08.591Z,3.44
2018-10-02T02:27:08.573Z,3.49
2018-10-02T02:28:08.562Z,3.52
2018-10-02T02:29:08.573Z,3.44
2018-10-02T02:30:08.558Z,3.40
2018-10-02T02:31:08.541Z,3.33
2018-10-02T02:32:08.536Z,3.30
2018-10-02T02:33:08.517Z,3.20
2018-10-02T02:34:08.503Z,3.23
2018-10-02T02:35:08.498Z,3.23
2018-10-02T02:36:08.490Z,3.21
2018-10-02T02:37:08.480Z,3.21
2018-10-02T02:38:08.472Z,3.18
2018-10-02T02:39:08.464Z,3.16
2018-10-02T02:40:08.457Z,3.16
2018-10-02T02:41:08.450Z,3.16
2018-10-02T02:42:08.436Z,3.06
2018-10-02T02:43:08.431Z,3.20
2018-10-02T02:44:08.421Z,3.30
2018-10-02T02:45:08.416Z,3.33
2018-10-02T02:46:08.405Z,3.31
2018-10-02T02:47:08.395Z,3.28
2018-10-02T02:48:08.395Z,3.27
2018-10-02T02:49:08.378Z,3.30
2018-10-02T02:50:08.371Z,3.33
2018-10-02T02:51:08.361Z,3.31
2018-10-02T02:52:08.382Z,3.42
2018-10-02T02:53:08.344Z,3.30
2018-10-02T02:54:08.337Z,3.46
2018-10-02T02:55:08.328Z,3.58
2018-10-02T02:56:08.319Z,3.64
2018-10-02T02:57:08.320Z,3.60
2018-10-02T02:58:08.302Z,3.62
2018-10-02T02:59:08.294Z,3.83
2018-10-02T03:00:08.289Z,3.82
2018-10-02T03:01:08.277Z,3.88
2018-10-02T03:02:08.268Z,3.92
2018-10-02T03:03:08.260Z,3.92
2018-10-02T03:04:08.254Z,3.88
2018-10-02T03:05:08.242Z,3.88
2018-10-02T03:06:08.238Z,3.75
2018-10-02T03:07:08.226Z,3.65
2018-10-02T03:08:08.219Z,3.60
2018-10-02T03:09:08.209Z,3.52
2018-10-02T03:10:08.204Z,3.49
2018-10-02T03:11:08.198Z,3.36
2018-10-02T03:12:08.190Z,3.61
2018-10-02T03:13:08.176Z,3.46
2018-10-02T03:14:08.168Z,3.60
2018-10-02T03:15:08.165Z,3.57
2018-10-02T03:16:08.158Z,3.61
2018-10-02T03:17:08.146Z,3.57
2018-10-02T03:18:08.137Z,3.70
2018-10-02T03:19:08.129Z,3.58
2018-10-02T03:20:08.129Z,3.65
2018-10-02T03:21:08.110Z,3.67
2018-10-02T03:22:08.103Z,3.64
2018-10-02T03:23:08.103Z,3.50
2018-10-02T03:24:08.089Z,3.43
2018-10-02T03:25:08.089Z,3.44
2018-10-02T03:26:08.662Z,3.31
2018-10-02T03:27:08.062Z,3.30
2018-10-02T03:28:08.057Z,3.33
2018-10-02T03:29:08.042Z,3.27
2018-10-02T03:30:08.042Z,3.31
2018-10-02T03:31:08.025Z,3.34
2018-10-02T03:32:08.025Z,3.20
2018-10-02T03:33:08.010Z,3.23
2018-10-02T03:34:08.005Z,3.16
2018-10-02T03:35:07.986Z,3.10
2018-10-02T03:36:07.987Z,3.09
2018-10-02T03:37:07.973Z,3.10
2018-10-02T03:38:07.970Z,2.97
2018-10-02T03:39:07.960Z,2.92
2018-10-02T03:40:07.955Z,3.07
2018-10-02T03:41:07.941Z,3.06
2018-10-02T03:42:07.931Z,3.30
2018-10-02T03:43:07.930Z,3.27
2018-10-02T03:44:07.916Z,3.25
2018-10-02T03:45:07.905Z,3.23
2018-10-02T03:46:07.899Z,3.13
2018-10-02T03:47:07.893Z,3.20
2018-10-02T03:48:07.883Z,3.27
2018-10-02T03:49:07.871Z,3.30
2018-10-02T03:50:07.866Z,3.30
2018-10-02T03:51:07.857Z,3.30
2018-10-02T03:52:07.847Z,3.15
2018-10-02T03:53:07.838Z,3.34
2018-10-02T03:54:07.835Z,3.44
2018-10-02T03:55:07.819Z,3.52
2018-10-02T03:56:07.816Z,3.33
2018-10-02T03:57:07.804Z,3.30
2018-10-02T03:58:07.800Z,3.33
2018-10-02T03:59:07.788Z,3.18
2018-10-02T04:00:07.798Z,3.15
2018-10-02T04:01:07.773Z,3.21
2018-10-02T04:02:07.766Z,3.02
2018-10-02T04:03:07.755Z,3.16
2018-10-02T04:04:07.744Z,3.10
2018-10-02T04:05:07.737Z,3.13
2018-10-02T04:06:07.727Z,3.25
2018-10-02T04:07:07.718Z,3.10
2018-10-02T04:08:07.716Z,3.15
2018-10-02T04:09:07.701Z,3.16
2018-10-02T04:10:07.694Z,3.21
2018-10-02T04:11:07.686Z,3.16
2018-10-02T04:12:07.678Z,3.27
2018-10-02T04:13:07.719Z,3.23
2018-10-02T04:14:07.659Z,3.15
2018-10-02T04:15:07.652Z,3.10
2018-10-02T04:16:07.648Z,2.95
2018-10-02T04:17:07.636Z,3.15
2018-10-02T04:18:07.624Z,3.12
2018-10-02T04:19:07.640Z,3.13
2018-10-02T04:20:07.614Z,3.10
2018-10-02T04:21:07.613Z,3.13
2018-10-02T04:22:07.619Z,3.09
2018-10-02T04:23:07.626Z,3.09
2018-10-02T04:24:07.589Z,3.13
2018-10-02T04:25:07.640Z,3.06
2018-10-02T04:26:07.647Z,3.07
2018-10-02T04:27:07.564Z,3.18
2018-10-02T04:28:07.583Z,3.23
2018-10-02T04:29:07.546Z,3.31
2018-10-02T04:30:07.576Z,3.40
2018-10-02T04:31:07.531Z,3.28
2018-10-02T04:32:07.536Z,3.28
2018-10-02T04:33:07.548Z,3.33
2018-10-02T04:34:07.583Z,3.34
2018-10-02T04:35:07.503Z,3.27
2018-10-02T04:36:07.529Z,3.47
2018-10-02T04:37:07.491Z,3.43
2018-10-02T04:38:07.476Z,3.47
2018-10-02T04:39:07.536Z,3.28
2018-10-02T04:40:07.555Z,3.30
2018-10-02T04:41:07.452Z,3.20
2018-10-02T04:42:07.447Z,3.40
2018-10-02T04:43:07.453Z,3.44
2018-10-02T04:44:07.457Z,3.47
2018-10-02T04:45:07.438Z,3.50
2018-10-02T04:46:07.439Z,3.46
2018-10-02T04:47:07.436Z,3.49
2018-10-02T04:48:07.418Z,3.60
2018-10-02T04:49:07.400Z,3.49
2018-10-02T04:50:07.414Z,3.49
2018-10-02T04:51:07.420Z,3.46
2018-10-02T04:52:07.412Z,3.46
2018-10-02T04:53:08.055Z,3.50
2018-10-02T04:54:07.365Z,3.62
2018-10-02T04:55:07.387Z,3.58
2018-10-02T04:56:07.369Z,3.60
2018-10-02T04:57:07.349Z,3.62
2018-10-02T04:58:07.303Z,3.47
2018-10-02T04:59:07.303Z,3.47
2018-10-02T05:00:07.287Z,3.58
2018-10-02T05:01:07.280Z,3.49
2018-10-02T05:02:07.276Z,3.44
2018-10-02T05:03:07.271Z,3.44
2018-10-02T05:04:07.327Z,3.36
2018-10-02T05:05:07.297Z,3.34
2018-10-02T05:06:07.302Z,3.33
2018-10-02T05:07:07.276Z,3.31
2018-10-02T05:08:07.244Z,3.43
2018-10-02T05:09:07.216Z,3.50
2018-10-02T05:10:07.222Z,3.46
2018-10-02T05:11:07.231Z,3.46
2018-10-02T05:12:07.236Z,3.60
2018-10-02T05:13:07.195Z,3.53
2018-10-02T05:14:07.248Z,3.65
2018-10-02T05:15:07.167Z,3.60
2018-10-02T05:16:07.163Z,3.61
2018-10-02T05:17:07.167Z,3.65
2018-10-02T05:18:07.138Z,3.70
2018-10-02T05:19:07.138Z,3.71
2018-10-02T05:20:07.190Z,3.68
2018-10-02T05:21:07.197Z,3.68
2018-10-02T05:22:07.108Z,3.71
2018-10-02T05:23:07.106Z,3.70
2018-10-02T05:24:07.111Z,3.62
2018-10-02T05:25:07.117Z,3.62
2018-10-02T05:26:07.128Z,3.65
2018-10-02T05:27:07.082Z,3.72
2018-10-02T05:28:07.072Z,3.65
2018-10-02T05:29:07.047Z,3.60
2018-10-02T05:30:07.053Z,3.62
2018-10-02T05:31:07.057Z,3.53
2018-10-02T05:32:07.079Z,3.50
2018-10-02T05:33:07.072Z,3.44
2018-10-02T05:34:07.078Z,3.42
2018-10-02T05:35:07.164Z,3.52
2018-10-02T05:36:06.996Z,3.46
2018-10-02T05:37:06.999Z,3.46
2018-10-02T05:38:06.976Z,3.39
2018-10-02T05:39:06.954Z,3.43
2018-10-02T05:40:06.947Z,3.46
2018-10-02T05:41:06.935Z,3.46
2018-10-02T05:42:06.934Z,3.42
2018-10-02T05:43:06.928Z,3.33
2018-10-02T05:44:06.938Z,3.30
2018-10-02T05:45:06.904Z,3.31
2018-10-02T05:46:06.894Z,3.24
2018-10-02T05:47:06.889Z,3.20
2018-10-02T05:48:06.878Z,3.16
2018-10-02T05:49:06.875Z,3.16
2018-10-02T05:50:06.862Z,3.33
2018-10-02T05:51:06.852Z,3.34
2018-10-02T05:52:06.865Z,3.64
2018-10-02T05:53:06.837Z,3.62
2018-10-02T05:54:06.831Z,3.71
2018-10-02T05:55:06.819Z,3.76
2018-10-02T05:56:06.869Z,3.97
2018-10-02T05:57:06.807Z,4.25
2018-10-02T05:58:06.802Z,4.22
2018-10-02T05:59:06.781Z,4.25
2018-10-02T06:00:06.782Z,4.29
2018-10-02T06:01:06.771Z,4.42
2018-10-02T06:02:06.762Z,4.43
2018-10-02T06:03:06.758Z,4.50
2018-10-02T06:04:06.762Z,4.79
2018-10-02T06:05:06.747Z,5.16
2018-10-02T06:06:06.728Z,5.75
2018-10-02T06:07:06.755Z,6.04
2018-10-02T06:08:06.740Z,6.44
2018-10-02T06:09:06.737Z,6.63
2018-10-02T06:10:06.778Z,7.08
2018-10-02T06:11:06.689Z,7.35
2018-10-02T06:12:06.697Z,7.71
2018-10-02T06:13:06.682Z,8.14
2018-10-02T06:14:07.649Z,8.17
2018-10-02T06:15:06.681Z,8.12
2018-10-02T06:16:06.669Z,8.35
2018-10-02T06:17:06.676Z,8.32
2018-10-02T06:18:06.666Z,8.68
2018-10-02T06:19:06.667Z,9.18
2018-10-02T06:20:06.635Z,9.43
2018-10-02T06:21:06.634Z,9.76
2018-10-02T06:22:06.637Z,9.89
2018-10-02T06:23:06.626Z,10.17
2018-10-02T06:24:06.638Z,10.26
2018-10-02T06:25:06.638Z,10.25
2018-10-02T06:26:06.613Z,10.60
2018-10-02T06:27:06.605Z,10.81
2018-10-02T06:28:06.602Z,10.70
2018-10-02T06:29:06.595Z,10.86
2018-10-02T06:30:06.589Z,10.83
2018-10-02T06:31:06.591Z,10.81
2018-10-02T06:32:06.585Z,10.78
2018-10-02T06:33:06.585Z,10.71
2018-10-02T06:34:06.574Z,10.84
2018-10-02T06:35:06.573Z,10.86
2018-10-02T06:36:06.574Z,10.71
2018-10-02T06:37:06.564Z,10.78
2018-10-02T06:38:06.581Z,10.91
2018-10-02T06:39:06.560Z,11.14
2018-10-02T06:40:06.553Z,11.57
2018-10-02T06:41:06.552Z,11.57
2018-10-02T06:42:06.552Z,11.85
2018-10-02T06:43:06.544Z,12.09
2018-10-02T06:44:06.542Z,12.15
2018-10-02T06:45:06.602Z,12.05
2018-10-02T06:46:06.538Z,12.11
2018-10-02T06:47:06.532Z,11.89
2018-10-02T06:48:06.530Z,11.62
2018-10-02T06:49:06.525Z,11.70
2018-10-02T06:50:06.533Z,11.83
2018-10-02T06:51:06.598Z,11.77
2018-10-02T06:52:06.609Z,11.85
2018-10-02T06:53:06.531Z,12.26
2018-10-02T06:54:06.511Z,12.71
2018-10-02T06:55:06.509Z,12.52
2018-10-02T06:56:06.506Z,12.30
2018-10-02T06:57:06.589Z,11.99
2018-10-02T06:58:06.500Z,12.05
2018-10-02T06:59:06.496Z,12.29
2018-10-02T07:00:06.496Z,12.21
2018-10-02T07:01:06.496Z,12.26
2018-10-02T07:02:06.493Z,12.42
2018-10-02T07:03:06.621Z,12.93
2018-10-02T07:04:06.486Z,13.33
2018-10-02T07:05:06.487Z,13.47
2018-10-02T07:06:06.484Z,13.59
2018-10-02T07:07:06.483Z,13.59
2018-10-02T07:08:06.480Z,14.13
2018-10-02T07:09:06.580Z,14.39
2018-10-02T07:10:06.477Z,14.35
2018-10-02T07:11:06.475Z,14.99
2018-10-02T07:12:06.473Z,15.36
2018-10-02T07:13:06.477Z,15.78
2018-10-02T07:14:06.472Z,15.96
2018-10-02T07:15:06.519Z,15.92
2018-10-02T07:16:06.469Z,16.11
2018-10-02T07:17:06.466Z,16.07
2018-10-02T07:18:06.468Z,16.15
2018-10-02T07:19:06.469Z,16.55
2018-10-02T07:20:06.469Z,15.70
2018-10-02T07:21:06.524Z,15.66
2018-10-02T07:22:06.465Z,16.07
2018-10-02T07:23:06.469Z,16.38
2018-10-02T07:24:06.470Z,16.73
2018-10-02T07:25:06.470Z,17.20
2018-10-02T07:26:06.484Z,17.51
2018-10-02T07:27:06.531Z,17.59
2018-10-02T07:28:06.522Z,17.66
2018-10-02T07:29:06.472Z,17.64
2018-10-02T07:30:06.481Z,17.71
2018-10-02T07:31:06.639Z,17.71
2018-10-02T07:32:06.480Z,17.13
2018-10-02T07:33:06.620Z,17.46
2018-10-02T07:34:06.486Z,17.47
2018-10-02T07:35:06.491Z,17.17
2018-10-02T07:36:06.488Z,17.89
2018-10-02T07:37:06.577Z,18.94
2018-10-02T07:38:06.506Z,18.77
2018-10-02T07:39:06.564Z,17.92
2018-10-02T07:40:06.501Z,16.50
2018-10-02T07:41:06.512Z,16.06
2018-10-02T07:42:06.564Z,15.66
2018-10-02T07:43:06.506Z,15.06
2018-10-02T07:44:06.519Z,15.20
2018-10-02T07:45:06.584Z,15.49
2018-10-02T07:46:06.513Z,15.49
2018-10-02T07:47:06.538Z,14.98
2018-10-02T07:48:06.527Z,14.65
2018-10-02T07:49:06.556Z,13.76
2018-10-02T07:50:06.521Z,13.04
2018-10-02T07:51:06.568Z,12.42
2018-10-02T07:52:06.557Z,12.51
2018-10-02T07:53:06.554Z,11.93
2018-10-02T07:54:06.602Z,11.49
2018-10-02T07:55:06.569Z,10.84
2018-10-02T07:56:06.563Z,10.47
2018-10-02T07:57:06.582Z,10.10
2018-10-02T07:58:06.514Z,9.86
2018-10-02T07:59:06.518Z,9.97
2018-10-02T08:00:06.578Z,10.10
2018-10-02T08:01:06.508Z,10.28
2018-10-02T08:02:06.503Z,10.33
2018-10-02T08:03:06.541Z,10.47
2018-10-02T08:04:06.536Z,10.58
2018-10-02T08:05:06.608Z,10.81
2018-10-02T08:06:06.575Z,11.14
2018-10-02T08:07:06.495Z,11.34
2018-10-02T08:08:06.489Z,11.61
2018-10-02T08:09:06.490Z,12.04
2018-10-02T08:10:06.486Z,11.90
2018-10-02T08:11:06.483Z,12.26
2018-10-02T08:12:06.583Z,12.85
2018-10-02T08:13:06.479Z,13.62
2018-10-02T08:14:06.482Z,14.47
2018-10-02T08:15:06.536Z,14.46
2018-10-02T08:16:06.476Z,13.55
2018-10-02T08:17:06.482Z,14.20
2018-10-02T08:18:06.580Z,14.42
2018-10-02T08:19:06.482Z,15.06
2018-10-02T08:20:06.564Z,15.41
2018-10-02T08:21:06.484Z,15.75
2018-10-02T08:22:06.540Z,16.85
2018-10-02T08:23:06.477Z,17.20
2018-10-02T08:24:06.529Z,16.95
2018-10-02T08:25:06.483Z,16.90
2018-10-02T08:26:06.539Z,15.92
2018-10-02T08:27:06.594Z,15.81
2018-10-02T08:28:06.489Z,16.16
2018-10-02T08:29:06.483Z,16.11
2018-10-02T08:30:06.603Z,16.62
2018-10-02T08:31:06.489Z,16.56
2018-10-02T08:32:06.499Z,16.23
2018-10-02T08:33:06.531Z,15.26
2018-10-02T08:34:06.498Z,15.81
2018-10-02T08:35:06.561Z,16.34
2018-10-02T08:36:06.599Z,16.96
2018-10-02T08:37:06.504Z,17.47
2018-10-02T08:38:06.542Z,18.02
2018-10-02T08:39:06.544Z,18.37
2018-10-02T08:40:06.512Z,18.22
2018-10-02T08:41:06.522Z,18.67
2018-10-02T08:42:06.521Z,18.76
2018-10-02T08:43:06.530Z,18.44
2018-10-02T08:44:06.542Z,18.94
2018-10-02T08:45:06.585Z,19.47
2018-10-02T08:46:06.537Z,19.93
2018-10-02T08:47:06.545Z,20.51
2018-10-02T08:48:06.550Z,19.79
2018-10-02T08:49:06.571Z,19.11
2018-10-02T08:50:06.563Z,19.72
2018-10-02T08:51:06.657Z,20.65
2018-10-02T08:52:06.784Z,21.17
2018-10-02T08:53:06.597Z,21.04
2018-10-02T08:54:06.702Z,21.38
2018-10-02T08:55:06.630Z,19.36
2018-10-02T08:56:06.595Z,18.10
2018-10-02T08:57:06.607Z,18.52
2018-10-02T08:58:06.610Z,18.98
2018-10-02T08:59:06.674Z,19.60
2018-10-02T09:00:06.628Z,20.10
2018-10-02T09:01:06.666Z,19.20
2018-10-02T09:02:06.639Z,18.98
2018-10-02T09:03:06.654Z,19.73
2018-10-02T09:04:06.659Z,20.08
2018-10-02T09:05:06.659Z,20.76
2018-10-02T09:06:06.667Z,19.94
2018-10-02T09:07:06.735Z,19.65
2018-10-02T09:08:06.682Z,19.28
2018-10-02T09:09:06.690Z,18.54
2018-10-02T09:10:06.696Z,18.18
2018-10-02T09:11:06.720Z,17.88
2018-10-02T09:12:06.703Z,18.06
2018-10-02T09:13:06.731Z,18.12
2018-10-02T09:14:06.719Z,17.99
2018-10-02T09:15:12.155Z,18.24
2018-10-02T09:16:06.828Z,17.73
2018-10-02T09:17:06.727Z,17.66
2018-10-02T09:18:06.738Z,17.94
2018-10-02T09:19:06.783Z,17.69
2018-10-02T09:20:06.738Z,16.67
2018-10-02T09:21:06.743Z,16.23
2018-10-02T09:22:06.843Z,15.86
2018-10-02T09:23:06.751Z,16.68
2018-10-02T09:24:06.758Z,17.88
2018-10-02T09:25:06.786Z,16.37
2018-10-02T09:26:06.774Z,16.68
2018-10-02T09:27:06.761Z,16.83
2018-10-02T09:28:06.865Z,16.99
2018-10-02T09:29:06.781Z,17.54
2018-10-02T09:30:06.791Z,17.64
2018-10-02T09:31:06.847Z,17.14
2018-10-02T09:32:06.794Z,16.55
2018-10-02T09:33:06.793Z,16.15
2018-10-02T09:34:06.803Z,15.36
2018-10-02T09:35:06.800Z,15.08
2018-10-02T09:36:06.812Z,14.72
2018-10-02T09:37:06.967Z,14.67
2018-10-02T09:38:06.809Z,14.78
2018-10-02T09:39:06.801Z,14.67
2018-10-02T09:40:06.887Z,14.61
2018-10-02T09:41:06.832Z,14.91
2018-10-02T09:42:06.813Z,15.54
2018-10-02T09:43:06.844Z,17.26
2018-10-02T09:44:06.898Z,18.10
2018-10-02T09:45:06.824Z,18.86
2018-10-02T09:46:06.825Z,19.15
2018-10-02T09:47:06.824Z,18.42
2018-10-02T09:48:06.841Z,19.23
2018-10-02T09:49:27.849Z,19.78
2018-10-02T09:50:06.837Z,20.30
2018-10-02T09:51:06.915Z,21.11
2018-10-02T09:52:06.846Z,20.69
2018-10-02T09:53:06.887Z,19.42
2018-10-02T09:54:06.850Z,19.01
2018-10-02T09:55:06.993Z,18.74
2018-10-02T09:56:06.865Z,18.34
2018-10-02T09:57:06.948Z,19.42
2018-10-02T09:58:06.878Z,18.25
2018-10-02T09:59:06.885Z,17.07
2018-10-02T10:00:06.889Z,18.02
2018-10-02T10:01:07.044Z,19.97
2018-10-02T10:02:06.896Z,19.97
2018-10-02T10:03:06.975Z,19.08
2018-10-02T10:04:06.959Z,18.80
2018-10-02T10:05:06.920Z,18.90
2018-10-02T10:06:06.928Z,20.16
2018-10-02T10:07:06.923Z,20.90
2018-10-02T10:08:06.962Z,21.61
2018-10-02T10:09:06.944Z,21.50
2018-10-02T10:10:06.949Z,19.97
2018-10-02T10:11:06.952Z,19.43
2018-10-02T10:12:06.960Z,19.36
2018-10-02T10:13:06.959Z,18.34
2018-10-02T10:14:06.965Z,18.28
2018-10-02T10:15:06.969Z,19.33
2018-10-02T10:16:07.038Z,20.09
2018-10-02T10:17:07.119Z,20.61
2018-10-02T10:18:06.992Z,21.30
2018-10-02T10:19:06.992Z,20.41
2018-10-02T10:20:06.995Z,19.23
2018-10-02T10:21:07.003Z,18.27
2018-10-02T10:22:07.006Z,17.92
2018-10-02T10:23:07.006Z,17.76
2018-10-02T10:24:07.013Z,17.41
2018-10-02T10:25:07.029Z,17.57
2018-10-02T10:26:07.021Z,17.70
2018-10-02T10:27:07.023Z,17.41
2018-10-02T10:28:07.030Z,16.90
2018-10-02T10:29:07.132Z,16.67
2018-10-02T10:30:07.031Z,16.50
2018-10-02T10:31:07.031Z,15.97
2018-10-02T10:32:07.035Z,15.78
2018-10-02T10:33:07.035Z,15.35
2018-10-02T10:34:07.038Z,15.06
2018-10-02T10:35:07.059Z,14.80
2018-10-02T10:36:07.048Z,14.74
2018-10-02T10:37:07.046Z,14.90
2018-10-02T10:38:07.041Z,15.43
2018-10-02T10:39:07.046Z,16.68
2018-10-02T10:40:07.046Z,18.00
2018-10-02T10:41:07.110Z,17.69
2018-10-02T10:42:07.042Z,18.27
2018-10-02T10:43:07.047Z,17.48
2018-10-02T10:44:07.049Z,17.04
2018-10-02T10:45:07.056Z,17.14
2018-10-02T10:46:07.055Z,17.63
2018-10-02T10:47:07.052Z,17.62
2018-10-02T10:48:07.052Z,17.20
2018-10-02T10:49:07.052Z,16.86
2018-10-02T10:50:07.058Z,16.56
2018-10-02T10:51:07.062Z,17.00
2018-10-02T10:52:07.061Z,16.70
2018-10-02T10:53:07.162Z,16.49
2018-10-02T10:54:07.083Z,16.50
2018-10-02T10:55:07.066Z,16.70
2018-10-02T10:56:07.067Z,17.95
2018-10-02T10:57:07.101Z,18.67
2018-10-02T10:58:07.074Z,19.91
2018-10-02T10:59:07.158Z,20.98
2018-10-02T11:00:07.069Z,21.59
2018-10-02T11:01:07.086Z,21.75
2018-10-02T11:02:07.102Z,22.35
2018-10-02T11:03:07.101Z,22.38
2018-10-02T11:04:07.102Z,21.36
2018-10-02T11:05:07.282Z,21.11
2018-10-02T11:06:07.102Z,19.73
2018-10-02T11:07:07.102Z,19.10
2018-10-02T11:08:07.162Z,18.82
2018-10-02T11:09:07.111Z,18.55
2018-10-02T11:10:07.115Z,17.95
2018-10-02T11:11:07.127Z,17.74
2018-10-02T11:12:07.120Z,17.38
2018-10-02T11:13:07.127Z,17.40
2018-10-02T11:14:07.131Z,17.32
2018-10-02T11:15:07.147Z,17.71
2018-10-02T11:16:07.142Z,17.59
2018-10-02T11:17:07.145Z,17.89
2018-10-02T11:18:07.147Z,17.79
2018-10-02T11:19:07.151Z,17.63
2018-10-02T11:20:07.159Z,18.24
2018-10-02T11:21:07.156Z,18.36
2018-10-02T11:22:07.164Z,18.04
2018-10-02T11:23:07.165Z,18.59
2018-10-02T11:24:07.185Z,19.06
2018-10-02T11:25:07.192Z,19.48
2018-10-02T11:26:07.184Z,19.73
2018-10-02T11:27:07.186Z,19.31
2018-10-02T11:28:07.185Z,19.01
2018-10-02T11:29:07.188Z,18.17
2018-10-02T11:30:07.195Z,18.03
2018-10-02T11:31:07.239Z,17.78
2018-10-02T11:32:07.204Z,17.71
2018-10-02T11:33:07.205Z,17.73
2018-10-02T11:34:07.214Z,17.66
2018-10-02T11:35:07.218Z,17.88
2018-10-02T11:36:07.217Z,17.13
2018-10-02T11:37:07.228Z,16.67
2018-10-02T11:38:07.230Z,16.90
2018-10-02T11:39:07.232Z,17.23
2018-10-02T11:40:07.230Z,17.38
2018-10-02T11:41:07.234Z,17.62
2018-10-02T11:42:07.235Z,17.74
2018-10-02T11:43:07.271Z,17.66
2018-10-02T11:44:07.325Z,17.48
2018-10-02T11:45:07.338Z,17.30
2018-10-02T11:46:07.235Z,17.76
2018-10-02T11:47:07.248Z,18.10
2018-10-02T11:48:07.247Z,18.25
2018-10-02T11:49:07.298Z,18.27
2018-10-02T11:50:07.254Z,17.78
2018-10-02T11:51:07.321Z,17.48
2018-10-02T11:52:07.262Z,17.71
2018-10-02T11:53:07.265Z,17.76
2018-10-02T11:54:07.260Z,17.41
2018-10-02T11:55:07.300Z,17.53
2018-10-02T11:56:07.321Z,17.46
2018-10-02T11:57:07.299Z,17.57
2018-10-02T11:58:07.278Z,17.92
2018-10-02T11:59:07.279Z,17.78
2018-10-02T12:00:07.281Z,17.54
2018-10-02T12:01:07.432Z,17.28
2018-10-02T12:02:07.290Z,16.90
2018-10-02T12:03:07.303Z,15.97
2018-10-02T12:04:07.293Z,16.07
2018-10-02T12:05:07.323Z,16.25
2018-10-02T12:06:07.364Z,16.12
2018-10-02T12:07:07.301Z,16.00
2018-10-02T12:08:07.355Z,16.16
2018-10-02T12:09:07.397Z,16.07
2018-10-02T12:10:07.311Z,15.97
2018-10-02T12:11:07.318Z,15.56
2018-10-02T12:12:07.299Z,15.60
2018-10-02T12:13:07.411Z,15.56
2018-10-02T12:14:07.425Z,15.31
2018-10-02T12:15:07.321Z,15.43
2018-10-02T12:16:07.318Z,15.46
2018-10-02T12:17:07.318Z,15.54
2018-10-02T12:18:07.316Z,15.82
2018-10-02T12:19:07.317Z,15.68
2018-10-02T12:20:07.369Z,15.84
2018-10-02T12:21:07.320Z,15.78
2018-10-02T12:22:07.331Z,15.74
2018-10-02T12:23:07.324Z,15.67
2018-10-02T12:24:07.325Z,15.63
2018-10-02T12:25:07.318Z,15.61
2018-10-02T12:26:07.331Z,15.63
2018-10-02T12:27:07.322Z,15.72
2018-10-02T12:28:07.324Z,15.86
2018-10-02T12:29:07.319Z,16.01
2018-10-02T12:30:07.320Z,16.07
2018-10-02T12:31:07.350Z,15.93
2018-10-02T12:32:07.322Z,16.03
2018-10-02T12:33:07.320Z,16.00
2018-10-02T12:34:07.320Z,16.03
2018-10-02T12:35:07.324Z,15.93
2018-10-02T12:36:07.346Z,15.92
2018-10-02T12:37:07.319Z,15.74
2018-10-02T12:38:07.323Z,15.33
2018-10-02T12:39:07.358Z,14.98
2018-10-02T12:40:07.320Z,14.25
2018-10-02T12:41:07.321Z,14.01
2018-10-02T12:42:07.318Z,14.13
2018-10-02T12:43:07.316Z,14.39
2018-10-02T12:44:07.317Z,14.46
2018-10-02T12:45:07.318Z,14.43
2018-10-02T12:46:07.333Z,14.53
2018-10-02T12:47:07.372Z,14.71
2018-10-02T12:48:07.311Z,14.53
2018-10-02T12:49:07.333Z,14.43
2018-10-02T12:50:07.318Z,14.37
2018-10-02T12:51:07.310Z,14.46
2018-10-02T12:52:07.328Z,14.54
2018-10-02T12:53:07.367Z,14.53
2018-10-02T12:54:07.307Z,14.54
2018-10-02T12:55:07.302Z,14.44
2018-10-02T12:56:07.316Z,14.39
2018-10-02T12:57:07.301Z,14.47
2018-10-02T12:58:07.314Z,14.62
2018-10-02T12:59:07.327Z,14.71
2018-10-02T13:00:07.300Z,14.75
2018-10-02T13:01:07.290Z,14.87
2018-10-02T13:02:07.292Z,14.74
2018-10-02T13:03:07.282Z,14.65
2018-10-02T13:04:07.292Z,14.87
2018-10-02T13:05:07.296Z,14.71
2018-10-02T13:06:07.325Z,14.83
2018-10-02T13:07:07.360Z,14.80
2018-10-02T13:08:07.337Z,14.86
2018-10-02T13:09:07.288Z,14.95
2018-10-02T13:10:07.339Z,14.95
2018-10-02T13:11:07.295Z,14.94
2018-10-02T13:12:07.288Z,14.90
2018-10-02T13:13:07.337Z,15.06
2018-10-02T13:14:07.275Z,15.05
2018-10-02T13:15:07.276Z,14.94
2018-10-02T13:16:07.280Z,15.02
2018-10-02T13:17:07.273Z,15.17
2018-10-02T13:18:07.281Z,15.39
2018-10-02T13:19:07.262Z,15.49
2018-10-02T13:20:07.343Z,15.52
2018-10-02T13:21:07.277Z,15.49
2018-10-02T13:22:07.265Z,15.35
2018-10-02T13:23:07.286Z,15.23
2018-10-02T13:24:07.269Z,15.09
2018-10-02T13:25:07.280Z,15.01
2018-10-02T13:26:07.267Z,14.87
2018-10-02T13:27:07.257Z,14.88
2018-10-02T13:28:07.260Z,14.65
2018-10-02T13:29:07.251Z,14.71
2018-10-02T13:30:07.298Z,14.64
2018-10-02T13:31:07.252Z,14.54
2018-10-02T13:32:07.320Z,14.62
2018-10-02T13:33:07.246Z,14.44
2018-10-02T13:34:07.246Z,14.37
2018-10-02T13:35:07.245Z,13.81
2018-10-02T13:36:07.259Z,14.01
2018-10-02T13:37:07.237Z,14.07
2018-10-02T13:38:07.255Z,13.79
2018-10-02T13:39:07.238Z,13.67
2018-10-02T13:40:07.236Z,13.81
2018-10-02T13:41:07.233Z,13.70
2018-10-02T13:42:07.234Z,13.71
2018-10-02T13:43:07.227Z,13.55
2018-10-02T13:44:07.244Z,13.56
2018-10-02T13:45:07.223Z,13.61